OTBD/DOH METAR and TAF weather

Enter ICAO airport designator
Station Type Date Time Source
OTBD METAR 2019/06/17 04:30 UTC NOAA

OTBD 170430Z AUTO 31008KT CAVOK 40/16 Q0999 NOSIG


Station Type Date Time Source
OTBD Decoded METAR 2019/06/17 04:30 UTC NOAA

Doha International Airport, Qatar (OTBD) 25-15N 051-34E 10M
Jun 17, 2019 - 12:30 AM EDT / 2019.06.17 0430 UTC
Wind: from the NW (310 degrees) at 9 MPH (8 KT):0
Visibility: greater than 7 mile(s):0
Temperature: 104 F (40 C)
Heat index: 105.3 F (40.7 C):1
Dew Point: 60 F (16 C)
Relative Humidity: 24%
Pressure (altimeter): 29.50 in. Hg (0999 hPa)
ob: OTBD 170430Z AUTO 31008KT CAVOK 40/16 Q0999 NOSIG
cycle: 4

Station Type Date Time Source
OTBD TAF 2019/06/16 18:27 UTC NOAA

TAF TAF OTBD 161722Z 1618/1724 36004KT CAVOK
BECMG 1620/1622 30006KT
BECMG 1706/1708 34012KT 8000 NSC
TEMPO 1711/1720 35012G22KT PROB30
TEMPO 1712/1714 4000 BLDU

Example: see airport list